createdAt,value
2022-09-27T00:03:56.384Z,13.53
2022-09-27T00:08:59.499Z,13.56
2022-09-27T00:14:02.424Z,13.53
2022-09-27T00:19:08.555Z,13.55
2022-09-27T00:24:13.585Z,13.51
2022-09-27T00:29:30.443Z,13.50
2022-09-27T00:34:34.801Z,13.51
2022-09-27T00:39:38.246Z,13.46
2022-09-27T00:45:04.922Z,13.37
2022-09-27T00:50:15.525Z,13.32
2022-09-27T00:55:22.354Z,13.25
2022-09-27T01:00:25.274Z,13.18
2022-09-27T01:05:30.251Z,13.17
2022-09-27T01:10:38.452Z,13.18
2022-09-27T01:15:45.345Z,13.15
2022-09-27T01:21:08.710Z,13.16
2022-09-27T01:26:14.819Z,13.12
2022-09-27T01:31:23.559Z,13.12
2022-09-27T01:36:30.252Z,13.09
2022-09-27T01:41:38.087Z,13.09
2022-09-27T01:46:56.383Z,13.12
2022-09-27T01:52:23.668Z,13.11
2022-09-27T01:57:29.048Z,13.10
2022-09-27T02:02:37.199Z,13.04
2022-09-27T02:08:22.566Z,13.02
2022-09-27T02:13:32.833Z,13.04
2022-09-27T02:19:06.918Z,13.04
2022-09-27T02:24:14.752Z,13.00
2022-09-27T02:29:20.356Z,12.94
2022-09-27T02:34:32.560Z,12.85
2022-09-27T02:39:35.811Z,12.85
2022-09-27T02:44:42.091Z,12.84
2022-09-27T02:49:58.859Z,12.85
2022-09-27T02:55:26.257Z,12.85
2022-09-27T03:00:39.545Z,12.88
2022-09-27T03:06:05.123Z,12.86
2022-09-27T03:12:37.735Z,12.83
2022-09-27T03:17:40.724Z,12.83
2022-09-27T03:23:03.536Z,12.78
2022-09-27T03:28:06.565Z,12.74
2022-09-27T03:33:10.619Z,12.73
2022-09-27T03:38:22.898Z,12.71
2022-09-27T03:43:25.957Z,12.70
2022-09-27T03:48:33.560Z,12.70
2022-09-27T03:53:37.793Z,12.70
2022-09-27T03:58:40.776Z,12.69
2022-09-27T04:03:43.771Z,12.62
2022-09-27T04:09:17.315Z,12.61
2022-09-27T04:14:31.800Z,12.53
2022-09-27T04:19:52.990Z,12.53
2022-09-27T04:24:57.555Z,12.49
2022-09-27T04:30:11.597Z,12.44
2022-09-27T04:35:52.005Z,12.44
2022-09-27T04:40:56.446Z,12.43
2022-09-27T04:45:59.667Z,12.39
2022-09-27T04:51:03.954Z,12.33
2022-09-27T04:56:08.498Z,12.31
2022-09-27T05:01:11.989Z,12.34
2022-09-27T05:06:40.094Z,12.33
2022-09-27T05:11:54.237Z,12.28
2022-09-27T05:17:09.941Z,12.19
2022-09-27T05:22:32.696Z,12.21
2022-09-27T05:27:36.782Z,12.21
2022-09-27T05:32:41.585Z,12.19
2022-09-27T05:38:04.677Z,12.20
2022-09-27T05:43:12.370Z,12.22
2022-09-27T05:48:15.229Z,12.17
2022-09-27T05:53:28.931Z,12.23
2022-09-27T05:58:34.386Z,12.18
2022-09-27T06:03:48.276Z,12.24
2022-09-27T06:08:51.063Z,12.27
2022-09-27T06:13:56.874Z,12.31
2022-09-27T06:19:00.779Z,12.37
2022-09-27T06:24:04.139Z,12.40
2022-09-27T06:29:11.780Z,12.46
2022-09-27T06:34:19.781Z,12.51
2022-09-27T06:39:22.850Z,12.51
2022-09-27T06:44:39.982Z,12.47
2022-09-27T06:50:05.604Z,12.57
2022-09-27T06:55:10.773Z,12.62
2022-09-27T07:00:26.779Z,12.64
2022-09-27T07:05:56.792Z,12.65
2022-09-27T07:11:15.542Z,12.76
2022-09-27T07:16:20.075Z,12.77
2022-09-27T07:21:22.907Z,12.70
2022-09-27T07:26:26.279Z,12.65
2022-09-27T07:31:30.559Z,12.70
2022-09-27T07:36:33.655Z,12.67
2022-09-27T07:41:39.166Z,12.54
2022-09-27T07:46:43.358Z,12.45
2022-09-27T07:51:59.066Z,12.39
2022-09-27T07:57:17.363Z,12.34
2022-09-27T08:02:28.023Z,12.42
2022-09-27T08:07:32.876Z,12.37
2022-09-27T08:12:36.674Z,12.63
2022-09-27T08:17:41.021Z,12.84
2022-09-27T08:22:48.847Z,12.84
2022-09-27T08:28:01.908Z,12.74
2022-09-27T08:33:19.664Z,12.78
2022-09-27T08:38:23.767Z,12.78
2022-09-27T08:43:36.685Z,12.89
2022-09-27T08:48:44.130Z,12.98
2022-09-27T08:53:51.809Z,12.86
2022-09-27T08:59:01.868Z,12.65
2022-09-27T09:04:11.225Z,12.49
2022-09-27T09:09:21.662Z,12.55
2022-09-27T09:15:13.105Z,12.83
2022-09-27T09:20:25.391Z,12.84
2022-09-27T09:25:33.654Z,12.81
2022-09-27T09:30:42.953Z,12.83
2022-09-27T09:35:51.404Z,12.62
2022-09-27T09:40:59.692Z,12.38
2022-09-27T09:46:09.796Z,12.05
2022-09-27T09:51:17.726Z,12.06
2022-09-27T09:56:24.472Z,12.01
2022-09-27T10:01:29.768Z,12.13
2022-09-27T10:06:34.126Z,12.10
2022-09-27T10:11:43.992Z,12.28
2022-09-27T10:16:55.486Z,12.20
2022-09-27T10:22:03.565Z,11.91
2022-09-27T10:27:06.906Z,11.59
2022-09-27T10:32:27.464Z,11.39
2022-09-27T10:38:15.110Z,11.53
2022-09-27T10:43:32.878Z,12.08
2022-09-27T10:49:55.215Z,12.36
2022-09-27T10:55:23.113Z,12.42
2022-09-27T11:00:31.323Z,12.19
2022-09-27T11:05:38.227Z,12.45
2022-09-27T11:10:42.319Z,12.36
2022-09-27T11:15:57.282Z,12.12
2022-09-27T11:21:10.485Z,12.24
2022-09-27T11:26:27.024Z,12.49
2022-09-27T11:31:37.501Z,12.49
2022-09-27T11:36:54.712Z,12.50
2022-09-27T11:42:43.259Z,12.51
2022-09-27T11:47:57.524Z,11.97
2022-09-27T11:53:11.246Z,10.07
2022-09-27T11:58:22.859Z,9.59
2022-09-27T12:03:49.613Z,9.43
2022-09-27T12:09:02.571Z,9.30
2022-09-27T12:14:11.130Z,9.56
2022-09-27T12:19:19.251Z,9.97
2022-09-27T12:24:30.761Z,10.23
2022-09-27T12:29:45.167Z,10.49
2022-09-27T12:34:52.334Z,10.76
2022-09-27T12:39:57.748Z,11.10
2022-09-27T12:45:11.548Z,11.19
2022-09-27T12:50:19.959Z,11.44
2022-09-27T12:55:42.697Z,12.53
2022-09-27T13:00:55.970Z,14.51
2022-09-27T13:06:31.782Z,14.45
2022-09-27T13:11:44.195Z,13.34
2022-09-27T13:16:49.390Z,12.65
2022-09-27T13:21:59.631Z,12.19
2022-09-27T13:27:39.709Z,11.74
2022-09-27T13:33:24.105Z,11.28
2022-09-27T13:38:36.811Z,11.36
2022-09-27T13:43:48.668Z,12.09
2022-09-27T13:49:04.838Z,13.49
2022-09-27T13:54:51.593Z,12.62
2022-09-27T13:59:58.877Z,12.46
2022-09-27T14:05:34.249Z,14.66
2022-09-27T14:10:37.434Z,14.38
2022-09-27T14:15:41.437Z,13.44
2022-09-27T14:20:47.119Z,12.76
2022-09-27T14:26:23.214Z,12.29
2022-09-27T14:31:26.755Z,12.62
2022-09-27T14:37:08.820Z,12.71
2022-09-27T14:42:28.500Z,12.51
2022-09-27T14:47:31.130Z,12.23
2022-09-27T14:52:35.537Z,12.31
2022-09-27T15:04:38.344Z,16.24
2022-09-27T15:10:27.185Z,15.32
2022-09-27T15:15:32.795Z,16.91
2022-09-27T15:20:36.815Z,16.14
2022-09-27T15:25:42.673Z,13.81
2022-09-27T15:30:52.464Z,13.06
2022-09-27T15:35:57.611Z,12.77
2022-09-27T15:41:11.022Z,12.75
2022-09-27T15:46:31.413Z,12.63
2022-09-27T15:51:42.279Z,12.53
2022-09-27T15:56:44.978Z,12.81
2022-09-27T16:01:49.128Z,12.55
2022-09-27T16:06:51.809Z,12.57
2022-09-27T16:11:54.435Z,12.77
2022-09-27T16:17:00.044Z,12.59
2022-09-27T16:22:03.650Z,12.40
2022-09-27T16:27:06.624Z,12.25
2022-09-27T16:32:11.137Z,12.14
2022-09-27T16:37:14.057Z,11.92
2022-09-27T16:42:16.937Z,11.77
2022-09-27T16:47:23.615Z,11.66
2022-09-27T16:52:26.274Z,11.64
2022-09-27T16:57:29.212Z,11.56
2022-09-27T17:02:33.583Z,11.54
2022-09-27T17:07:36.216Z,11.50
2022-09-27T17:12:38.861Z,11.50
2022-09-27T17:17:45.119Z,11.51
2022-09-27T17:22:47.829Z,11.55
2022-09-27T17:27:50.495Z,11.61
2022-09-27T17:32:54.548Z,11.43
2022-09-27T17:37:57.254Z,11.22
2022-09-27T17:42:59.911Z,11.23
2022-09-27T17:48:21.537Z,11.28
2022-09-27T17:53:24.438Z,11.29
2022-09-27T17:58:27.120Z,11.31
2022-09-27T18:03:31.297Z,11.28
2022-09-27T18:08:33.971Z,11.19
2022-09-27T18:13:40.498Z,11.11
2022-09-27T18:18:48.115Z,11.04
2022-09-27T18:23:52.063Z,10.95
2022-09-27T18:28:55.754Z,10.82
2022-09-27T18:34:00.169Z,10.82
2022-09-27T18:39:05.532Z,10.76
2022-09-27T18:44:08.171Z,10.73
2022-09-27T18:49:13.393Z,10.74
2022-09-27T18:54:18.449Z,10.75
2022-09-27T18:59:23.529Z,10.75
2022-09-27T19:04:27.696Z,10.72
2022-09-27T19:09:31.249Z,10.68
2022-09-27T19:14:34.821Z,10.69
2022-09-27T19:19:38.787Z,10.68
2022-09-27T19:24:41.422Z,10.60
2022-09-27T19:29:44.365Z,10.66
2022-09-27T19:34:48.339Z,10.70
2022-09-27T19:39:55.283Z,10.69
2022-09-27T19:44:58.988Z,10.66
2022-09-27T19:50:02.954Z,10.62
2022-09-27T19:55:06.600Z,10.62
2022-09-27T20:00:11.267Z,10.66
2022-09-27T20:05:15.776Z,10.68
2022-09-27T20:10:18.555Z,10.64
2022-09-27T20:15:21.242Z,10.59
2022-09-27T20:20:25.509Z,10.51
2022-09-27T20:25:29.388Z,10.46
2022-09-27T20:30:32.379Z,10.40
2022-09-27T20:35:36.452Z,10.36
2022-09-27T20:40:39.211Z,10.32
2022-09-27T20:45:43.192Z,10.26
2022-09-27T20:50:47.282Z,10.16
2022-09-27T20:55:50.718Z,10.07
2022-09-27T21:00:53.583Z,10.05
2022-09-27T21:05:58.017Z,10.07
2022-09-27T21:11:08.846Z,10.03
2022-09-27T21:16:14.433Z,9.92
2022-09-27T21:21:19.522Z,9.88
2022-09-27T21:26:23.285Z,9.82
2022-09-27T21:31:27.289Z,9.74
2022-09-27T21:36:33.035Z,9.71
2022-09-27T21:41:36.104Z,9.75
2022-09-27T21:46:40.579Z,9.79
2022-09-27T21:51:44.764Z,9.82
2022-09-27T21:56:47.420Z,9.83
2022-09-27T22:01:50.104Z,9.83
2022-09-27T22:06:54.443Z,9.80
2022-09-27T22:11:57.048Z,9.80
2022-09-27T22:16:59.693Z,9.78
2022-09-27T22:22:03.653Z,9.80
2022-09-27T22:27:06.286Z,9.79
2022-09-27T22:32:09.245Z,9.77
2022-09-27T22:37:16.636Z,9.76
2022-09-27T22:42:20.607Z,9.74
2022-09-27T22:47:23.234Z,9.71
2022-09-27T22:52:27.211Z,9.65
2022-09-27T22:57:29.887Z,9.71
2022-09-27T23:02:32.582Z,9.73
2022-09-27T23:07:36.578Z,9.68
2022-09-27T23:12:39.199Z,9.63
2022-09-27T23:17:41.913Z,9.64
2022-09-27T23:22:46.129Z,9.61
2022-09-27T23:27:50.184Z,9.58
2022-09-27T23:32:54.282Z,9.53
2022-09-27T23:37:58.737Z,9.49
2022-09-27T23:43:01.996Z,9.49
2022-09-27T23:48:05.224Z,9.42
2022-09-27T23:53:09.127Z,9.39
2022-09-27T23:58:11.685Z,9.37
